Time;durP1;ratioP1;P1;durP2;ratioP2;P2;SDS_P1;SDS_P2;PMS_P1;PMS_P2;Temp;Humidity;BMP_temperature;BMP_pressure;BME280_temperature;BME280_humidity;BME280_pressure;Samples;Min_cycle;Max_cycle;Signal;HPM_P1;HPM_P2
2022/06/02 00:02:12;;;;;;;0.85;0.00;;;26.00;37.60;;;;;;4909902;29;20458;-61
2022/06/02 00:04:45;;;;;;;1.88;0.10;;;26.00;37.60;;;;;;4909569;29;20040;-60
2022/06/02 00:07:18;;;;;;;0.65;0.10;;;26.00;37.70;;;;;;4907217;29;20075;-61
2022/06/02 00:09:57;;;;;;;0.10;0.10;;;26.00;37.70;;;;;;4908939;29;20058;-60
2022/06/02 00:12:31;;;;;;;0.35;0.00;;;26.00;37.70;;;;;;4907293;29;20585;-61
2022/06/02 00:15:10;;;;;;;2.83;0.10;;;25.90;37.60;;;;;;4909664;29;20068;-60
2022/06/02 00:17:44;;;;;;;1.40;0.30;;;26.00;37.80;;;;;;4909616;29;20048;-61
2022/06/02 00:20:17;;;;;;;1.17;0.10;;;26.00;37.80;;;;;;4910198;29;20692;-60
2022/06/02 00:22:53;;;;;;;0.15;0.00;;;25.90;37.70;;;;;;4908757;29;20096;-61
2022/06/02 00:25:27;;;;;;;2.95;0.75;;;25.90;37.80;;;;;;4903980;29;20139;-61
2022/06/02 00:28:02;;;;;;;2.30;0.10;;;25.90;37.80;;;;;;4908877;29;20529;-62
2022/06/02 00:30:34;;;;;;;0.10;0.00;;;25.90;37.80;;;;;;4908421;29;20585;-59
2022/06/02 00:33:16;;;;;;;1.05;0.00;;;25.90;37.80;;;;;;4938011;28;20081;-61
2022/06/02 00:35:51;;;;;;;2.17;0.10;;;25.90;37.90;;;;;;4987376;28;20137;-61
2022/06/02 00:38:24;;;;;;;0.00;0.00;;;25.90;38.00;;;;;;4989918;28;20125;-61
2022/06/02 00:40:53;;;;;;;3.20;0.10;;;25.90;38.00;;;;;;4988575;28;20513;-61
2022/06/02 00:43:41;;;;;;;1.85;0.10;;;25.90;38.00;;;;;;4983386;28;20154;-60
2022/06/02 00:46:14;;;;;;;1.80;0.28;;;25.90;38.00;;;;;;4985830;28;20070;-60
2022/06/02 00:48:53;;;;;;;5.00;0.32;;;25.90;38.00;;;;;;4989053;28;20038;-60
2022/06/02 00:51:30;;;;;;;0.73;0.10;;;25.80;38.00;;;;;;4988774;28;20068;-60
2022/06/02 01:00:00;;;;;;;1.27;0.10;;;25.90;38.20;;;;;;4988841;28;20043;-60
2022/06/02 01:02:30;;;;;;;2.58;0.30;;;25.80;38.50;;;;;;4989367;28;20081;-60
2022/06/02 01:05:00;;;;;;;0.40;0.17;;;25.80;38.30;;;;;;4988496;28;20046;-60
2022/06/02 01:07:37;;;;;;;0.13;0.10;;;25.80;38.30;;;;;;4989184;28;20042;-60
2022/06/02 01:10:31;;;;;;;1.60;0.00;;;25.80;38.40;;;;;;4988970;28;20042;-59
2022/06/02 01:13:16;;;;;;;2.33;0.10;;;25.80;38.30;;;;;;4989198;28;20130;-60
2022/06/02 01:15:53;;;;;;;0.80;0.20;;;25.80;38.40;;;;;;4984841;28;20066;-60
2022/06/02 01:18:29;;;;;;;0.32;0.20;;;25.80;38.40;;;;;;4989125;28;20081;-62
2022/06/02 01:21:17;;;;;;;3.13;0.10;;;25.80;38.50;;;;;;4987631;28;20046;-59
2022/06/02 01:24:18;;;;;;;1.48;0.20;;;25.80;38.60;;;;;;4986051;28;20057;-59
2022/06/02 01:27:13;;;;;;;1.95;0.10;;;25.70;38.50;;;;;;4987442;28;20069;-60
2022/06/02 01:30:13;;;;;;;1.25;0.10;;;25.70;38.70;;;;;;4983535;28;20046;-59
2022/06/02 01:32:51;;;;;;;0.43;0.43;;;25.70;38.70;;;;;;4985362;28;20038;-58
2022/06/02 01:35:26;;;;;;;0.10;0.10;;;25.70;38.70;;;;;;4988982;28;20053;-59
2022/06/02 01:38:03;;;;;;;0.05;0.03;;;25.70;38.80;;;;;;4988037;28;20133;-59
2022/06/02 01:40:37;;;;;;;0.10;0.10;;;25.70;38.80;;;;;;4988103;28;20417;-59
2022/06/02 01:43:12;;;;;;;2.25;0.10;;;25.70;38.80;;;;;;4988056;28;20526;-58
2022/06/02 01:46:01;;;;;;;0.10;0.10;;;25.70;38.90;;;;;;4987833;28;20042;-59
2022/06/02 01:48:37;;;;;;;0.88;0.10;;;25.70;38.80;;;;;;4983044;28;20132;-56
2022/06/02 01:51:14;;;;;;;0.50;0.10;;;25.70;38.80;;;;;;4987754;28;20045;-59
2022/06/02 01:53:58;;;;;;;0.80;0.10;;;25.70;38.80;;;;;;4986430;28;20055;-59
2022/06/02 01:56:41;;;;;;;0.20;0.13;;;25.70;38.80;;;;;;4988507;28;20046;-60
2022/06/02 01:59:26;;;;;;;0.20;0.10;;;25.70;38.80;;;;;;4988028;28;20145;-59
2022/06/02 02:02:02;;;;;;;0.20;0.10;;;25.70;38.80;;;;;;4987088;28;20050;-62
2022/06/02 02:05:07;;;;;;;0.47;0.10;;;25.60;38.70;;;;;;4988014;28;20046;-60
2022/06/02 02:07:46;;;;;;;0.65;0.65;;;25.70;38.80;;;;;;4987485;28;20046;-61
2022/06/02 02:10:39;;;;;;;1.77;0.05;;;25.60;38.90;;;;;;4988173;28;20069;-60
2022/06/02 02:13:21;;;;;;;0.52;0.30;;;25.60;39.40;;;;;;4983538;28;20096;-61
2022/06/02 02:15:55;;;;;;;0.55;0.05;;;25.60;38.90;;;;;;4987078;28;20038;-58
2022/06/02 02:18:33;;;;;;;0.88;0.10;;;25.60;39.00;;;;;;4986870;28;20039;-61
2022/06/02 02:21:14;;;;;;;0.28;0.10;;;25.60;39.00;;;;;;4986127;28;20042;-61
2022/06/02 02:23:49;;;;;;;0.20;0.20;;;25.60;39.10;;;;;;4997002;28;20124;-60
2022/06/02 02:26:22;;;;;;;0.20;0.10;;;25.60;39.00;;;;;;4989108;28;20097;-60
2022/06/02 02:28:56;;;;;;;0.10;0.10;;;25.60;39.00;;;;;;4986947;28;20126;-60
2022/06/02 02:31:34;;;;;;;0.30;0.00;;;25.60;39.00;;;;;;4986213;28;20046;-59
2022/06/02 02:34:12;;;;;;;0.10;0.10;;;25.60;39.10;;;;;;4986644;28;20073;-60
2022/06/02 02:36:51;;;;;;;0.43;0.00;;;25.50;39.10;;;;;;4980956;28;20526;-60
2022/06/02 02:39:23;;;;;;;0.03;0.00;;;25.50;39.20;;;;;;4987008;28;20098;-60
2022/06/02 02:41:56;;;;;;;0.57;0.00;;;25.50;39.20;;;;;;4986741;28;20526;-58
2022/06/02 02:44:29;;;;;;;3.85;0.00;;;25.50;38.80;;;;;;4969776;28;20132;-59
2022/06/02 02:47:01;;;;;;;1.35;0.43;;;25.50;38.50;;;;;;4986339;28;20062;-59
2022/06/02 02:49:34;;;;;;;0.35;0.10;;;25.40;38.30;;;;;;4969339;28;20073;-58
2022/06/02 02:52:10;;;;;;;1.65;0.10;;;25.30;38.00;;;;;;4986730;28;20038;-58
2022/06/02 02:54:49;;;;;;;0.38;0.10;;;25.30;37.60;;;;;;4980302;28;20046;-59
2022/06/02 02:57:26;;;;;;;0.10;0.00;;;25.20;37.60;;;;;;4981843;28;20101;-59
2022/06/02 02:59:59;;;;;;;0.10;0.00;;;25.10;37.30;;;;;;4986814;28;20046;-56
2022/06/02 03:02:32;;;;;;;1.00;0.10;;;25.00;37.20;;;;;;4987911;28;20105;-58
2022/06/02 03:05:06;;;;;;;0.20;0.10;;;25.00;36.80;;;;;;4986217;28;20062;-59
2022/06/02 03:07:35;;;;;;;1.05;0.00;;;24.90;36.80;;;;;;4969989;28;20489;-59
2022/06/02 03:10:09;;;;;;;1.55;0.10;;;24.80;36.70;;;;;;4986413;28;20038;-59
2022/06/02 03:13:04;;;;;;;0.20;0.10;;;24.70;36.50;;;;;;4986535;28;20089;-59
2022/06/02 03:15:40;;;;;;;1.17;0.05;;;24.70;36.50;;;;;;4982894;28;20046;-60
2022/06/02 03:18:27;;;;;;;0.70;0.10;;;24.60;36.50;;;;;;4984305;28;20046;-60
2022/06/02 03:20:59;;;;;;;1.17;0.10;;;24.60;36.50;;;;;;4986332;28;20060;-60
2022/06/02 03:23:56;;;;;;;0.10;0.08;;;24.50;36.50;;;;;;4987768;28;20049;-59
2022/06/02 03:26:32;;;;;;;0.15;0.00;;;24.50;36.40;;;;;;4986980;28;20038;-61
2022/06/02 03:29:07;;;;;;;0.10;0.10;;;24.40;36.50;;;;;;4985401;28;20089;-59
2022/06/02 03:31:40;;;;;;;6.63;0.10;;;24.30;36.40;;;;;;4985846;28;20038;-59
2022/06/02 03:34:17;;;;;;;0.10;0.10;;;24.30;36.30;;;;;;4980242;28;20113;-59
2022/06/02 03:37:09;;;;;;;1.17;0.57;;;24.30;36.40;;;;;;4986033;28;20137;-59
2022/06/02 03:39:50;;;;;;;0.17;0.10;;;24.20;36.40;;;;;;4927292;29;20224;-59
2022/06/02 03:42:27;;;;;;;5.05;0.10;;;24.20;36.40;;;;;;4921653;29;20058;-59
2022/06/02 03:45:09;;;;;;;0.70;0.10;;;24.10;36.30;;;;;;4925844;29;20056;-59
2022/06/02 03:47:56;;;;;;;3.00;0.10;;;24.10;36.40;;;;;;4927473;29;20054;-58
2022/06/02 03:50:51;;;;;;;0.77;0.40;;;24.00;36.30;;;;;;4927270;28;20111;-53
2022/06/02 03:53:38;;;;;;;0.73;0.25;;;24.00;36.20;;;;;;4917396;29;20123;-56
2022/06/02 03:56:21;;;;;;;1.55;0.22;;;23.90;36.30;;;;;;4928423;29;20524;-52
2022/06/02 03:59:01;;;;;;;0.50;0.10;;;23.90;36.40;;;;;;4926375;29;20075;-57
2022/06/02 04:01:34;;;;;;;0.22;0.10;;;23.90;36.40;;;;;;4926150;29;20067;-56
2022/06/02 04:04:16;;;;;;;0.85;0.20;;;23.80;36.40;;;;;;4924965;29;20044;-57
2022/06/02 04:06:56;;;;;;;0.50;0.20;;;23.80;36.40;;;;;;4926366;29;20043;-55
2022/06/02 04:09:34;;;;;;;0.30;0.10;;;23.70;36.30;;;;;;4922508;29;20560;-57
2022/06/02 04:15:44;;;;;;;1.85;0.20;;;23.70;36.30;;;;;;4847979;29;20088;-55
2022/06/02 04:18:20;;;;;;;1.63;0.10;;;23.60;36.20;;;;;;4905344;29;20052;-57
2022/06/02 04:21:00;;;;;;;0.70;0.30;;;23.60;36.30;;;;;;4902985;29;20044;-58
2022/06/02 04:23:49;;;;;;;0.20;0.20;;;23.60;36.20;;;;;;4907063;29;20075;-57
2022/06/02 04:26:30;;;;;;;0.95;0.10;;;23.50;36.20;;;;;;4907790;29;20167;-58
2022/06/02 04:29:14;;;;;;;2.33;0.10;;;23.50;36.20;;;;;;4905794;29;20240;-57
2022/06/02 04:31:53;;;;;;;0.68;0.10;;;23.50;36.20;;;;;;4903245;29;20040;-57
2022/06/02 04:34:32;;;;;;;3.53;0.75;;;23.50;36.20;;;;;;4905432;29;20068;-57
2022/06/02 04:37:07;;;;;;;3.65;0.10;;;23.40;36.20;;;;;;4909616;29;20131;-55
2022/06/02 04:39:46;;;;;;;5.45;0.73;;;23.40;36.30;;;;;;4905533;29;20425;-57
2022/06/02 04:42:23;;;;;;;3.10;0.47;;;23.40;36.20;;;;;;4900530;29;20052;-57
2022/06/02 04:45:01;;;;;;;2.67;0.30;;;23.40;36.20;;;;;;4908512;29;20485;-57
2022/06/02 04:47:41;;;;;;;0.93;0.13;;;23.40;36.10;;;;;;4910092;29;20044;-58
2022/06/02 04:50:17;;;;;;;2.88;0.35;;;23.40;36.10;;;;;;4961308;28;20053;-58
2022/06/02 04:52:55;;;;;;;2.72;0.40;;;23.30;36.10;;;;;;4989091;28;20038;-57
2022/06/02 04:55:32;;;;;;;0.65;0.20;;;23.30;36.00;;;;;;4988614;28;20080;-58
2022/06/02 04:58:05;;;;;;;0.55;0.40;;;23.30;36.00;;;;;;4988558;28;20435;-58
2022/06/02 05:00:43;;;;;;;2.67;0.20;;;23.30;36.10;;;;;;4988745;28;20043;-58
2022/06/02 05:03:17;;;;;;;2.47;0.10;;;23.30;35.90;;;;;;4987148;28;20046;-57
2022/06/02 05:05:53;;;;;;;1.05;0.20;;;23.20;35.90;;;;;;4989024;28;20074;-58
2022/06/02 05:08:50;;;;;;;1.65;0.38;;;23.20;35.80;;;;;;4988909;28;20045;-56
2022/06/02 05:11:26;;;;;;;3.85;0.10;;;23.20;36.40;;;;;;4990266;28;20046;-57
2022/06/02 05:14:03;;;;;;;0.30;0.20;;;23.20;35.80;;;;;;4988704;28;20561;-58
2022/06/02 05:16:44;;;;;;;1.25;0.20;;;23.20;35.80;;;;;;4988483;28;20070;-58
2022/06/02 05:19:33;;;;;;;0.70;0.20;;;23.20;35.80;;;;;;4988212;28;20042;-58
2022/06/02 05:22:32;;;;;;;0.70;0.20;;;23.20;35.80;;;;;;4988426;28;20137;-58
2022/06/02 05:25:28;;;;;;;0.98;0.20;;;23.20;35.80;;;;;;4983447;28;20065;-57
2022/06/02 05:28:16;;;;;;;0.65;0.10;;;23.20;35.70;;;;;;4988220;28;20479;-59
2022/06/02 05:30:58;;;;;;;0.93;0.45;;;23.10;35.70;;;;;;4980638;28;20419;-59
2022/06/02 05:34:02;;;;;;;2.80;0.25;;;23.10;35.80;;;;;;4987822;28;20098;-58
2022/06/02 05:36:49;;;;;;;0.55;0.20;;;23.10;35.60;;;;;;4987977;28;20051;-57
2022/06/02 05:39:34;;;;;;;0.68;0.10;;;23.10;35.90;;;;;;4986020;28;20042;-57
2022/06/02 05:42:14;;;;;;;0.50;0.10;;;23.10;36.20;;;;;;4987054;28;20134;-57
2022/06/02 05:45:04;;;;;;;4.38;0.22;;;23.10;35.80;;;;;;4985611;28;20038;-57
2022/06/02 05:47:45;;;;;;;0.73;0.63;;;23.10;35.80;;;;;;4986326;28;20047;-59
2022/06/02 05:50:24;;;;;;;1.35;0.10;;;23.10;36.00;;;;;;4986188;28;20039;-58
2022/06/02 05:53:02;;;;;;;0.95;0.20;;;23.10;36.10;;;;;;4984184;28;20533;-59
2022/06/02 05:55:40;;;;;;;2.05;0.10;;;23.20;36.20;;;;;;4986533;28;20064;-59
2022/06/02 05:58:24;;;;;;;2.63;0.10;;;23.10;36.10;;;;;;4987233;28;20125;-59
2022/06/02 06:01:02;;;;;;;2.15;0.22;;;23.20;36.20;;;;;;4991195;28;20443;-59
2022/06/02 06:04:01;;;;;;;1.17;0.10;;;23.20;36.20;;;;;;4992999;28;20050;-59
2022/06/02 06:06:35;;;;;;;0.20;0.10;;;23.30;36.20;;;;;;4908523;29;20129;-59
2022/06/02 06:09:09;;;;;;;11.10;0.82;;;23.20;36.10;;;;;;4911126;29;20071;-60
2022/06/02 06:12:00;;;;;;;1.25;0.10;;;23.20;36.00;;;;;;4917024;29;20161;-59
2022/06/02 06:14:38;;;;;;;0.20;0.03;;;23.30;36.00;;;;;;4909838;29;20107;-61
2022/06/02 06:17:14;;;;;;;2.50;0.10;;;23.20;36.00;;;;;;4909576;29;20059;-60
2022/06/02 06:19:51;;;;;;;1.25;0.10;;;23.30;36.50;;;;;;4907628;29;20075;-60
2022/06/02 06:22:42;;;;;;;0.60;0.10;;;23.30;36.00;;;;;;4907917;29;20048;-59
2022/06/02 06:25:32;;;;;;;0.30;0.10;;;23.30;35.90;;;;;;4907379;29;20678;-58
2022/06/02 06:28:10;;;;;;;3.38;0.45;;;23.30;35.80;;;;;;4902445;29;20084;-59
2022/06/02 06:30:54;;;;;;;3.03;0.20;;;23.30;35.90;;;;;;4906070;29;20125;-60
2022/06/02 06:33:42;;;;;;;3.67;0.40;;;23.30;35.50;;;;;;4906421;29;20528;-58
2022/06/02 06:36:24;;;;;;;15.25;1.02;;;23.30;35.30;;;;;;4902509;29;20226;-60
2022/06/02 06:39:04;;;;;;;5.63;0.55;;;23.20;35.20;;;;;;4908034;29;20059;-59
2022/06/02 06:42:03;;;;;;;19.58;0.40;;;23.20;35.70;;;;;;4908895;29;20052;-59
2022/06/02 06:44:38;;;;;;;3.80;0.20;;;23.20;35.40;;;;;;4982091;28;20137;-59
2022/06/02 06:47:13;;;;;;;14.20;1.13;;;23.20;35.40;;;;;;4988449;28;20042;-59
2022/06/02 06:49:55;;;;;;;6.78;0.30;;;23.10;35.40;;;;;;4986727;28;20057;-59
2022/06/02 06:52:51;;;;;;;4.13;0.63;;;23.10;35.70;;;;;;4985041;28;20126;-58
2022/06/02 06:55:39;;;;;;;3.03;0.28;;;23.10;35.80;;;;;;4978388;28;20141;-59
2022/06/02 06:58:18;;;;;;;4.03;0.13;;;23.10;35.60;;;;;;4986201;28;20087;-54
2022/06/02 07:00:51;;;;;;;4.28;0.20;;;23.10;36.40;;;;;;4985770;28;20522;-55
2022/06/02 07:03:25;;;;;;;5.72;0.10;;;23.10;36.00;;;;;;4986052;28;20125;-57
2022/06/02 07:05:54;;;;;;;13.43;0.68;;;23.10;36.00;;;;;;4985909;28;20470;-58
2022/06/02 07:08:29;;;;;;;12.48;0.60;;;23.10;35.80;;;;;;4986296;28;20053;-57
2022/06/02 07:14:11;;;;;;;15.38;0.30;;;23.10;35.70;;;;;;4987562;28;20061;-57
2022/06/02 07:16:45;;;;;;;1.15;0.88;;;23.10;35.80;;;;;;4985673;28;20039;-57
2022/06/02 07:19:22;;;;;;;10.80;0.80;;;23.00;35.70;;;;;;4985128;28;20104;-57
2022/06/02 07:21:56;;;;;;;17.85;0.80;;;23.00;35.70;;;;;;4984396;28;20113;-60
2022/06/02 07:24:35;;;;;;;5.22;0.28;;;23.00;35.60;;;;;;4987644;28;20097;-64
2022/06/02 07:27:25;;;;;;;8.80;0.30;;;23.10;35.50;;;;;;4970395;28;20165;-54
2022/06/02 07:30:07;;;;;;;5.13;0.50;;;23.20;35.60;;;;;;4988223;28;20074;-57
2022/06/02 07:33:09;;;;;;;2.72;0.95;;;23.30;35.40;;;;;;4987648;28;20728;-60
2022/06/02 07:35:52;;;;;;;11.07;0.38;;;23.50;35.20;;;;;;4986379;28;20070;-56
2022/06/02 07:38:38;;;;;;;4.68;0.50;;;23.60;35.00;;;;;;4991245;28;20053;-57
2022/06/02 07:41:16;;;;;;;;;;;23.80;34.80;;;;;;4991358;28;20046;-54
2022/06/02 07:44:25;;;;;;;3.33;1.50;;;23.80;34.60;;;;;;4988020;28;20012;-55
2022/06/02 07:47:11;;;;;;;1.45;0.20;;;24.00;34.40;;;;;;4969512;28;20070;-60
2022/06/02 07:49:54;;;;;;;1.67;0.20;;;24.20;34.20;;;;;;4987158;28;20050;-60
2022/06/02 07:52:33;;;;;;;3.05;0.10;;;24.30;33.90;;;;;;4985796;28;20086;-56
2022/06/02 07:55:13;;;;;;;2.25;0.10;;;24.50;33.70;;;;;;4982703;28;20038;-61
2022/06/02 07:57:46;;;;;;;1.50;0.13;;;24.60;33.50;;;;;;4986260;28;20161;-60
2022/06/02 08:00:18;;;;;;;2.75;0.20;;;24.70;33.20;;;;;;4986653;28;20070;-62
2022/06/02 08:03:21;;;;;;;2.40;0.15;;;24.90;33.10;;;;;;4985650;28;20100;-60
2022/06/02 08:05:59;;;;;;;11.52;0.40;;;25.00;32.70;;;;;;4985522;28;20510;-64
2022/06/02 08:08:35;;;;;;;1.67;0.13;;;25.10;32.50;;;;;;4987092;28;20042;-59
2022/06/02 08:11:23;;;;;;;1.58;0.30;;;25.20;32.30;;;;;;4986319;28;20137;-65
2022/06/02 08:14:01;;;;;;;1.00;0.20;;;25.40;32.20;;;;;;4983654;28;20762;-61
2022/06/02 08:16:47;;;;;;;1.95;0.20;;;25.50;31.70;;;;;;4969201;28;20054;-56
2022/06/02 08:19:25;;;;;;;0.20;0.10;;;25.70;31.40;;;;;;4985802;28;20042;-57
2022/06/02 08:21:56;;;;;;;3.13;0.20;;;25.70;31.20;;;;;;4988747;28;20038;-58
2022/06/02 08:24:44;;;;;;;4.25;0.10;;;25.80;31.10;;;;;;4989535;28;20066;-57
2022/06/02 08:27:40;;;;;;;5.00;0.20;;;26.00;31.00;;;;;;4990670;28;20038;-67
2022/06/02 08:30:12;;;;;;;0.68;0.10;;;26.00;30.90;;;;;;5002353;28;20042;-65
2022/06/02 08:33:06;;;;;;;7.38;0.40;;;26.10;30.60;;;;;;4991350;28;20046;-71
2022/06/02 08:35:42;;;;;;;12.10;0.57;;;26.20;30.40;;;;;;4987361;28;20054;-61
2022/06/02 08:38:29;;;;;;;5.30;0.38;;;26.20;30.30;;;;;;4987616;28;20061;-66
2022/06/02 08:41:30;;;;;;;12.35;0.25;;;26.30;30.20;;;;;;4986261;28;20035;-69
2022/06/02 08:44:34;;;;;;;5.85;0.52;;;26.30;30.10;;;;;;4985969;28;20049;-71
2022/06/02 08:47:27;;;;;;;0.20;0.10;;;26.40;30.70;;;;;;4984631;28;20058;-67
2022/06/02 08:50:11;;;;;;;1.08;0.10;;;26.40;30.00;;;;;;4985998;28;20042;-60
2022/06/02 08:53:32;;;;;;;1.77;0.10;;;26.40;29.90;;;;;;4986267;28;20042;-62
2022/06/02 08:56:20;;;;;;;2.72;0.10;;;26.50;30.00;;;;;;4986012;28;20057;-54
2022/06/02 08:59:31;;;;;;;7.32;0.40;;;26.50;30.00;;;;;;4986594;28;20074;-57
2022/06/02 09:02:41;;;;;;;8.63;0.57;;;26.60;30.00;;;;;;4985107;28;20055;-59
2022/06/02 09:05:45;;;;;;;4.80;0.30;;;26.60;29.90;;;;;;4979518;28;20537;-58
2022/06/02 09:08:34;;;;;;;16.33;1.08;;;26.70;29.90;;;;;;4945048;29;20055;-59
2022/06/02 09:11:27;;;;;;;3.50;0.35;;;26.70;29.90;;;;;;4932737;29;20059;-59
2022/06/02 09:14:37;;;;;;;2.97;0.30;;;26.80;29.90;;;;;;4943949;29;20066;-66
2022/06/02 09:17:21;;;;;;;4.43;0.20;;;26.90;29.70;;;;;;4906609;29;20051;-66
2022/06/02 09:20:10;;;;;;;6.70;0.60;;;26.80;29.60;;;;;;4906094;29;20063;-65
2022/06/02 09:22:54;;;;;;;1.80;0.20;;;26.90;29.60;;;;;;4905548;29;20099;-63
2022/06/02 09:25:29;;;;;;;13.88;1.00;;;26.90;29.40;;;;;;4905454;29;20048;-65
2022/06/02 09:28:21;;;;;;;3.13;0.90;;;27.00;29.40;;;;;;4906633;29;20329;-65
2022/06/02 09:30:59;;;;;;;2.55;0.20;;;27.00;29.40;;;;;;4888791;29;20053;-67
2022/06/02 09:33:54;;;;;;;3.85;0.10;;;27.00;29.30;;;;;;4905295;29;20367;-65
2022/06/02 09:36:55;;;;;;;3.35;0.43;;;27.10;29.40;;;;;;4904566;29;20059;-64
2022/06/02 09:39:49;;;;;;;3.03;0.20;;;27.10;29.50;;;;;;4831398;29;20054;-60
2022/06/02 09:42:32;;;;;;;2.60;0.10;;;27.20;29.60;;;;;;4830702;29;20074;-58
2022/06/02 09:45:13;;;;;;;1.85;0.10;;;27.20;29.50;;;;;;4834105;29;20322;-60
2022/06/02 09:48:05;;;;;;;2.22;0.10;;;27.20;29.50;;;;;;4846928;29;20516;-59
2022/06/02 09:50:54;;;;;;;1.17;0.28;;;27.30;29.60;;;;;;4854910;29;20136;-61
2022/06/02 09:53:45;;;;;;;3.83;0.10;;;27.30;29.50;;;;;;4905244;29;20052;-62
2022/06/02 09:56:47;;;;;;;5.78;1.48;;;27.30;29.30;;;;;;4906304;29;20059;-52
2022/06/02 09:59:25;;;;;;;0.40;0.13;;;27.30;29.20;;;;;;4906139;29;20058;-65
2022/06/02 10:02:08;;;;;;;1.38;0.10;;;27.40;29.30;;;;;;4904326;29;20568;-63
2022/06/02 10:04:52;;;;;;;0.38;0.30;;;27.40;29.00;;;;;;4904385;29;20482;-65
2022/06/02 10:07:32;;;;;;;0.95;0.30;;;27.50;28.90;;;;;;4905333;29;20051;-64
2022/06/02 10:10:41;;;;;;;4.30;0.40;;;27.50;28.70;;;;;;4905548;29;20048;-67
2022/06/02 10:13:42;;;;;;;5.75;0.20;;;27.60;28.80;;;;;;4829784;29;20602;-48
2022/06/02 10:16:59;;;;;;;9.30;0.45;;;27.60;29.10;;;;;;4852917;29;20553;-57
2022/06/02 10:20:05;;;;;;;4.43;0.60;;;27.50;29.30;;;;;;4908011;29;20048;-57
2022/06/02 10:22:43;;;;;;;0.77;0.10;;;27.40;29.50;;;;;;4903596;29;20052;-56
2022/06/02 10:25:29;;;;;;;3.22;0.10;;;27.30;29.60;;;;;;4908575;29;20119;-57
2022/06/02 10:28:14;;;;;;;1.52;0.17;;;27.30;29.70;;;;;;4908511;29;20173;-55
2022/06/02 10:31:31;;;;;;;6.40;0.10;;;27.20;29.80;;;;;;4908180;29;20056;-56
2022/06/02 10:34:29;;;;;;;0.30;0.22;;;27.20;29.90;;;;;;4907841;29;20119;-57
2022/06/02 10:37:12;;;;;;;4.97;0.57;;;27.10;30.00;;;;;;4905596;29;20126;-57
2022/06/02 10:40:08;;;;;;;1.70;0.10;;;27.00;30.00;;;;;;4908581;29;20280;-57
2022/06/02 10:42:58;;;;;;;2.05;0.60;;;27.00;30.00;;;;;;4903991;29;20461;-57
2022/06/02 10:46:03;;;;;;;3.15;0.65;;;27.00;30.00;;;;;;4898218;29;20040;-55
2022/06/02 10:48:55;;;;;;;4.78;0.32;;;27.00;30.20;;;;;;4874992;29;20047;-56
2022/06/02 10:52:07;;;;;;;4.18;0.10;;;26.90;30.10;;;;;;4904444;29;20075;-56
2022/06/02 10:55:11;;;;;;;2.10;0.10;;;26.90;30.30;;;;;;4902242;29;20044;-54
2022/06/02 10:58:00;;;;;;;0.82;0.20;;;26.90;30.60;;;;;;4911909;29;20039;-55
2022/06/02 11:00:51;;;;;;;0.15;0.10;;;26.90;31.40;;;;;;4903995;29;20048;-57
2022/06/02 11:03:58;;;;;;;4.15;0.10;;;26.90;30.90;;;;;;4905668;29;20056;-56
2022/06/02 11:06:40;;;;;;;;;;;26.90;30.90;;;;;;4898438;29;20577;-56
2022/06/02 11:09:48;;;;;;;1.50;0.15;;;26.80;30.90;;;;;;4870486;29;19928;-58
2022/06/02 11:12:57;;;;;;;2.28;1.38;;;26.80;31.10;;;;;;4867709;29;20069;-57
2022/06/02 11:15:49;;;;;;;4.57;1.15;;;26.80;31.10;;;;;;4775428;30;20063;-58
2022/06/02 11:18:55;;;;;;;1.25;0.45;;;26.80;31.20;;;;;;4772057;30;20043;-57
2022/06/02 11:22:05;;;;;;;8.57;0.52;;;26.80;31.30;;;;;;4765538;30;20055;-58
2022/06/02 11:25:12;;;;;;;6.15;0.47;;;26.80;31.40;;;;;;4869401;29;20049;-56
2022/06/02 11:28:12;;;;;;;3.65;0.50;;;26.80;31.40;;;;;;4870103;29;20697;-55
2022/06/02 11:31:07;;;;;;;8.98;0.30;;;26.80;31.50;;;;;;4870260;29;20084;-57
2022/06/02 11:34:03;;;;;;;4.55;0.30;;;26.80;31.60;;;;;;4866784;29;20135;-56
2022/06/02 11:37:21;;;;;;;3.35;0.20;;;26.80;31.70;;;;;;4864423;29;20108;-55
2022/06/02 11:40:17;;;;;;;4.00;0.60;;;26.80;31.80;;;;;;4864441;29;20415;-56
2022/06/02 11:42:56;;;;;;;2.13;0.30;;;26.80;32.00;;;;;;4863566;29;20566;-55
2022/06/02 11:45:42;;;;;;;2.60;0.40;;;26.80;32.10;;;;;;4871902;29;20064;-53
2022/06/02 11:48:29;;;;;;;4.85;0.10;;;26.90;32.20;;;;;;4902662;29;20194;-56
2022/06/02 11:51:26;;;;;;;2.50;0.77;;;26.90;32.20;;;;;;4908862;28;20056;-53
2022/06/02 11:54:13;;;;;;;1.27;0.10;;;26.90;32.20;;;;;;4988488;28;20601;-54
2022/06/02 11:56:51;;;;;;;8.63;0.10;;;26.90;32.20;;;;;;4977154;28;20046;-56
2022/06/02 12:00:03;;;;;;;3.60;0.43;;;26.90;32.30;;;;;;4990724;28;20046;-56
2022/06/02 12:03:10;;;;;;;3.40;0.10;;;27.00;32.30;;;;;;4931488;29;20064;-55
2022/06/02 12:06:14;;;;;;;5.55;0.40;;;27.00;32.40;;;;;;4928905;28;20201;-55
2022/06/02 12:09:17;;;;;;;1.88;1.08;;;27.00;32.40;;;;;;4931009;29;20044;-54
2022/06/02 12:12:05;;;;;;;2.22;0.20;;;27.00;32.40;;;;;;4930165;29;20555;-57
2022/06/02 12:14:57;;;;;;;4.38;0.15;;;27.00;33.00;;;;;;4931861;29;20083;-56
2022/06/02 12:17:59;;;;;;;3.30;0.20;;;27.00;32.40;;;;;;4930627;28;20130;-54
2022/06/02 12:20:52;;;;;;;2.55;0.10;;;27.10;32.50;;;;;;4918889;29;20111;-55
2022/06/02 12:23:34;;;;;;;2.83;0.45;;;27.10;32.50;;;;;;4931614;29;20044;-56
2022/06/02 12:26:08;;;;;;;1.85;0.47;;;27.10;32.50;;;;;;4929440;29;20151;-54
2022/06/02 12:29:13;;;;;;;0.20;0.10;;;27.10;32.50;;;;;;4929758;29;20052;-56
2022/06/02 12:32:00;;;;;;;0.88;0.35;;;27.20;32.40;;;;;;4929486;29;20203;-59
2022/06/02 12:34:53;;;;;;;1.38;0.00;;;27.20;32.40;;;;;;4929507;29;20051;-57
2022/06/02 12:37:51;;;;;;;0.10;0.10;;;27.20;32.40;;;;;;4941637;28;20100;-56
2022/06/02 12:40:40;;;;;;;2.38;0.47;;;27.30;32.40;;;;;;4989849;28;20074;-56
2022/06/02 12:43:33;;;;;;;1.95;0.10;;;27.30;32.40;;;;;;4990039;28;20051;-57
2022/06/02 12:46:19;;;;;;;1.38;0.22;;;27.30;32.40;;;;;;4988698;28;20042;-55
2022/06/02 12:49:24;;;;;;;3.22;0.20;;;27.40;32.40;;;;;;4983330;28;20574;-55
2022/06/02 12:52:11;;;;;;;4.30;0.10;;;27.40;32.40;;;;;;4929303;29;20048;-54
2022/06/02 12:55:06;;;;;;;1.40;0.20;;;27.50;32.40;;;;;;4924368;29;20047;-52
2022/06/02 12:58:15;;;;;;;0.80;0.43;;;27.50;32.30;;;;;;4927966;29;20064;-51
2022/06/02 13:01:03;;;;;;;0.30;0.15;;;27.60;32.30;;;;;;4862480;29;20049;-57
2022/06/02 13:04:20;;;;;;;1.00;0.10;;;27.70;32.40;;;;;;4866791;29;20070;-56
2022/06/02 13:07:22;;;;;;;1.27;0.52;;;27.70;32.30;;;;;;4857365;29;20061;-55
2022/06/02 13:10:35;;;;;;;0.75;0.68;;;27.70;32.30;;;;;;4861412;29;20160;-57
2022/06/02 13:13:33;;;;;;;0.63;0.17;;;27.70;32.30;;;;;;4797334;29;20059;-57
2022/06/02 13:16:42;;;;;;;0.93;0.10;;;27.70;32.30;;;;;;4794428;29;20057;-59
2022/06/02 13:19:32;;;;;;;0.55;0.30;;;27.70;32.30;;;;;;4797492;29;20065;-54
2022/06/02 13:22:49;;;;;;;1.08;0.10;;;27.70;32.20;;;;;;4799340;29;20136;-57
2022/06/02 13:25:53;;;;;;;0.63;0.10;;;27.80;32.20;;;;;;4780855;29;20059;-56
2022/06/02 13:28:43;;;;;;;0.38;0.10;;;27.90;32.20;;;;;;4799245;29;20066;-55
2022/06/02 13:31:30;;;;;;;0.57;0.10;;;27.90;32.20;;;;;;4813406;29;20054;-56
2022/06/02 13:34:38;;;;;;;0.65;0.45;;;28.00;32.10;;;;;;4812148;29;20050;-57
2022/06/02 13:37:22;;;;;;;;;;;28.10;32.10;;;;;;4877561;29;20128;-54
2022/06/02 13:40:09;;;;;;;0.10;0.10;;;28.10;32.10;;;;;;4885658;29;20361;-56
2022/06/02 13:42:55;;;;;;;0.90;0.20;;;28.10;32.10;;;;;;4890937;29;20044;-54
2022/06/02 13:46:01;;;;;;;0.13;0.13;;;28.20;32.10;;;;;;4982655;28;20515;-56
2022/06/02 13:49:16;;;;;;;3.33;0.10;;;28.20;32.10;;;;;;4987473;28;20042;-55
2022/06/02 13:52:29;;;;;;;1.85;0.10;;;28.20;32.10;;;;;;4926802;29;20729;-55
2022/06/02 13:58:27;;;;;;;3.35;0.20;;;28.30;32.00;;;;;;4925579;29;20040;-56
2022/06/02 14:01:16;;;;;;;1.17;0.10;;;28.30;32.00;;;;;;4927945;29;20044;-56
2022/06/02 14:04:11;;;;;;;3.80;0.55;;;28.40;32.00;;;;;;4924094;29;20059;-58
2022/06/02 14:06:44;;;;;;;2.42;0.10;;;28.40;31.90;;;;;;4912113;29;20134;-56
2022/06/02 14:09:34;;;;;;;4.75;0.10;;;28.40;31.90;;;;;;4921611;29;20043;-56
2022/06/02 14:12:33;;;;;;;0.98;0.15;;;28.50;31.90;;;;;;4927994;29;20058;-57
2022/06/02 14:15:20;;;;;;;0.32;0.20;;;28.50;31.80;;;;;;4927236;29;20220;-54
2022/06/02 14:18:14;;;;;;;1.75;0.10;;;28.50;31.70;;;;;;4924729;29;20851;-57
2022/06/02 14:20:52;;;;;;;2.10;0.10;;;28.60;31.80;;;;;;4925501;29;20883;-56
2022/06/02 14:23:43;;;;;;;2.45;0.40;;;28.60;31.80;;;;;;4929161;29;20055;-57
2022/06/02 14:26:24;;;;;;;0.57;0.10;;;28.60;31.70;;;;;;4964704;28;20117;-56
2022/06/02 14:29:07;;;;;;;3.45;0.10;;;28.60;31.70;;;;;;4988009;28;20049;-54
2022/06/02 14:31:47;;;;;;;2.33;0.47;;;28.60;31.60;;;;;;4988198;28;20124;-56
2022/06/02 14:34:27;;;;;;;1.83;0.10;;;28.70;31.70;;;;;;4987821;28;20046;-56
2022/06/02 14:37:06;;;;;;;1.05;0.10;;;28.70;31.70;;;;;;4987768;28;20526;-53
2022/06/02 14:39:45;;;;;;;0.40;0.10;;;28.70;31.70;;;;;;4987870;28;20058;-55
2022/06/02 14:43:04;;;;;;;0.65;0.10;;;28.70;31.60;;;;;;4982943;28;20766;-56